sensor_id;sensor_type;location;lat;lon;timestamp;P1;durP1;ratioP1;P2;durP2;ratioP2
52414;SDS011;38340;52.964;6.086;2023-05-07T00:02:21;18.60;;;14.35;;
52414;SDS011;38340;52.964;6.086;2023-05-07T00:04:48;20.45;;;13.82;;
52414;SDS011;38340;52.964;6.086;2023-05-07T00:07:14;18.48;;;13.95;;
52414;SDS011;38340;52.964;6.086;2023-05-07T00:09:40;15.93;;;14.27;;
52414;SDS011;38340;52.964;6.086;2023-05-07T00:12:06;18.35;;;14.38;;
52414;SDS011;38340;52.964;6.086;2023-05-07T00:14:32;17.95;;;14.50;;
52414;SDS011;38340;52.964;6.086;2023-05-07T00:16:58;18.25;;;13.65;;
52414;SDS011;38340;52.964;6.086;2023-05-07T00:19:24;19.83;;;15.05;;
52414;SDS011;38340;52.964;6.086;2023-05-07T00:21:49;18.52;;;14.02;;
52414;SDS011;38340;52.964;6.086;2023-05-07T00:24:15;18.65;;;14.48;;
52414;SDS011;38340;52.964;6.086;2023-05-07T00:26:41;18.88;;;14.85;;
52414;SDS011;38340;52.964;6.086;2023-05-07T00:29:06;17.33;;;14.35;;
52414;SDS011;38340;52.964;6.086;2023-05-07T00:31:32;19.70;;;15.25;;
52414;SDS011;38340;52.964;6.086;2023-05-07T00:33:58;19.02;;;14.55;;
52414;SDS011;38340;52.964;6.086;2023-05-07T00:36:23;19.42;;;14.40;;
52414;SDS011;38340;52.964;6.086;2023-05-07T00:38:50;18.73;;;15.13;;
52414;SDS011;38340;52.964;6.086;2023-05-07T00:41:16;16.75;;;14.48;;
52414;SDS011;38340;52.964;6.086;2023-05-07T00:43:42;19.73;;;14.57;;
52414;SDS011;38340;52.964;6.086;2023-05-07T00:46:07;17.50;;;14.20;;
52414;SDS011;38340;52.964;6.086;2023-05-07T00:48:33;19.88;;;14.55;;
52414;SDS011;38340;52.964;6.086;2023-05-07T00:50:58;19.40;;;14.93;;
52414;SDS011;38340;52.964;6.086;2023-05-07T00:53:24;18.42;;;14.75;;
52414;SDS011;38340;52.964;6.086;2023-05-07T00:55:51;20.85;;;14.68;;
52414;SDS011;38340;52.964;6.086;2023-05-07T00:58:17;18.73;;;15.30;;
52414;SDS011;38340;52.964;6.086;2023-05-07T01:00:43;18.27;;;14.60;;
52414;SDS011;38340;52.964;6.086;2023-05-07T01:03:09;19.80;;;14.93;;
52414;SDS011;38340;52.964;6.086;2023-05-07T01:05:34;17.50;;;14.45;;
52414;SDS011;38340;52.964;6.086;2023-05-07T01:08:01;18.52;;;14.15;;
52414;SDS011;38340;52.964;6.086;2023-05-07T01:10:27;22.25;;;15.25;;
52414;SDS011;38340;52.964;6.086;2023-05-07T01:12:55;17.55;;;14.35;;
52414;SDS011;38340;52.964;6.086;2023-05-07T01:15:23;18.77;;;14.15;;
52414;SDS011;38340;52.964;6.086;2023-05-07T01:17:49;20.65;;;13.93;;
52414;SDS011;38340;52.964;6.086;2023-05-07T01:20:15;17.38;;;14.98;;
52414;SDS011;38340;52.964;6.086;2023-05-07T01:22:40;17.63;;;14.85;;
52414;SDS011;38340;52.964;6.086;2023-05-07T01:25:08;16.85;;;13.85;;
52414;SDS011;38340;52.964;6.086;2023-05-07T01:27:34;19.90;;;15.07;;
52414;SDS011;38340;52.964;6.086;2023-05-07T01:30:01;20.25;;;13.77;;
52414;SDS011;38340;52.964;6.086;2023-05-07T01:32:29;19.08;;;15.15;;
52414;SDS011;38340;52.964;6.086;2023-05-07T01:35:01;17.35;;;14.40;;
52414;SDS011;38340;52.964;6.086;2023-05-07T01:37:27;21.25;;;14.85;;
52414;SDS011;38340;52.964;6.086;2023-05-07T01:39:54;18.48;;;14.73;;
52414;SDS011;38340;52.964;6.086;2023-05-07T01:42:21;17.35;;;14.88;;
52414;SDS011;38340;52.964;6.086;2023-05-07T01:44:47;20.70;;;15.02;;
52414;SDS011;38340;52.964;6.086;2023-05-07T01:47:13;23.95;;;15.68;;
52414;SDS011;38340;52.964;6.086;2023-05-07T01:49:39;21.42;;;15.35;;
52414;SDS011;38340;52.964;6.086;2023-05-07T01:52:06;20.88;;;15.05;;
52414;SDS011;38340;52.964;6.086;2023-05-07T01:54:33;23.42;;;15.32;;
52414;SDS011;38340;52.964;6.086;2023-05-07T01:56:59;20.00;;;15.68;;
52414;SDS011;38340;52.964;6.086;2023-05-07T01:59:25;23.35;;;16.95;;
52414;SDS011;38340;52.964;6.086;2023-05-07T02:01:51;21.10;;;16.67;;
52414;SDS011;38340;52.964;6.086;2023-05-07T02:04:17;20.60;;;16.50;;
52414;SDS011;38340;52.964;6.086;2023-05-07T02:06:42;26.08;;;18.48;;
52414;SDS011;38340;52.964;6.086;2023-05-07T02:09:08;23.30;;;19.02;;
52414;SDS011;38340;52.964;6.086;2023-05-07T02:11:34;23.85;;;18.70;;
52414;SDS011;38340;52.964;6.086;2023-05-07T02:14:00;22.90;;;19.20;;
52414;SDS011;38340;52.964;6.086;2023-05-07T02:16:26;27.90;;;20.60;;
52414;SDS011;38340;52.964;6.086;2023-05-07T02:18:51;25.38;;;20.83;;
52414;SDS011;38340;52.964;6.086;2023-05-07T02:21:17;26.67;;;20.80;;
52414;SDS011;38340;52.964;6.086;2023-05-07T02:23:43;28.65;;;21.55;;
52414;SDS011;38340;52.964;6.086;2023-05-07T02:26:08;24.30;;;20.55;;
52414;SDS011;38340;52.964;6.086;2023-05-07T02:28:36;25.92;;;21.55;;
52414;SDS011;38340;52.964;6.086;2023-05-07T02:31:04;28.98;;;22.33;;
52414;SDS011;38340;52.964;6.086;2023-05-07T02:33:30;25.20;;;20.92;;
52414;SDS011;38340;52.964;6.086;2023-05-07T02:35:56;28.75;;;22.92;;
52414;SDS011;38340;52.964;6.086;2023-05-07T02:38:22;25.95;;;21.02;;
52414;SDS011;38340;52.964;6.086;2023-05-07T02:40:48;29.33;;;22.92;;
52414;SDS011;38340;52.964;6.086;2023-05-07T02:43:14;29.85;;;23.00;;
52414;SDS011;38340;52.964;6.086;2023-05-07T02:45:39;29.55;;;22.08;;
52414;SDS011;38340;52.964;6.086;2023-05-07T02:48:05;29.80;;;23.60;;
52414;SDS011;38340;52.964;6.086;2023-05-07T02:50:31;30.13;;;23.17;;
52414;SDS011;38340;52.964;6.086;2023-05-07T02:52:57;34.50;;;23.23;;
52414;SDS011;38340;52.964;6.086;2023-05-07T02:55:23;30.35;;;23.38;;
52414;SDS011;38340;52.964;6.086;2023-05-07T02:57:49;29.23;;;22.90;;
52414;SDS011;38340;52.964;6.086;2023-05-07T03:00:16;32.42;;;23.10;;
52414;SDS011;38340;52.964;6.086;2023-05-07T03:02:43;30.20;;;22.73;;
52414;SDS011;38340;52.964;6.086;2023-05-07T03:05:10;31.25;;;23.45;;
52414;SDS011;38340;52.964;6.086;2023-05-07T03:07:36;29.13;;;23.27;;
52414;SDS011;38340;52.964;6.086;2023-05-07T03:10:03;27.48;;;22.05;;
52414;SDS011;38340;52.964;6.086;2023-05-07T03:12:30;28.55;;;23.50;;
52414;SDS011;38340;52.964;6.086;2023-05-07T03:14:56;30.42;;;23.08;;
52414;SDS011;38340;52.964;6.086;2023-05-07T03:17:22;33.10;;;24.63;;
52414;SDS011;38340;52.964;6.086;2023-05-07T03:19:47;32.15;;;23.80;;
52414;SDS011;38340;52.964;6.086;2023-05-07T03:22:13;32.20;;;25.27;;
52414;SDS011;38340;52.964;6.086;2023-05-07T03:24:39;33.50;;;24.30;;
52414;SDS011;38340;52.964;6.086;2023-05-07T03:27:05;29.13;;;23.33;;
52414;SDS011;38340;52.964;6.086;2023-05-07T03:29:31;29.23;;;24.25;;
52414;SDS011;38340;52.964;6.086;2023-05-07T03:31:56;33.45;;;25.05;;
52414;SDS011;38340;52.964;6.086;2023-05-07T03:34:22;35.60;;;24.20;;
52414;SDS011;38340;52.964;6.086;2023-05-07T03:36:49;33.20;;;23.75;;
52414;SDS011;38340;52.964;6.086;2023-05-07T03:39:14;29.08;;;23.63;;
52414;SDS011;38340;52.964;6.086;2023-05-07T03:41:40;32.58;;;24.88;;
52414;SDS011;38340;52.964;6.086;2023-05-07T03:44:06;33.85;;;26.20;;
52414;SDS011;38340;52.964;6.086;2023-05-07T03:46:32;31.55;;;24.33;;
52414;SDS011;38340;52.964;6.086;2023-05-07T03:48:58;32.50;;;24.33;;
52414;SDS011;38340;52.964;6.086;2023-05-07T03:51:30;34.63;;;25.15;;
52414;SDS011;38340;52.964;6.086;2023-05-07T03:53:56;35.38;;;25.02;;
52414;SDS011;38340;52.964;6.086;2023-05-07T03:56:25;32.25;;;24.52;;
52414;SDS011;38340;52.964;6.086;2023-05-07T03:58:51;34.40;;;26.20;;
52414;SDS011;38340;52.964;6.086;2023-05-07T04:01:17;37.70;;;26.95;;
52414;SDS011;38340;52.964;6.086;2023-05-07T04:03:43;41.85;;;27.52;;
52414;SDS011;38340;52.964;6.086;2023-05-07T04:06:08;34.67;;;26.38;;
52414;SDS011;38340;52.964;6.086;2023-05-07T04:08:34;37.00;;;26.50;;
52414;SDS011;38340;52.964;6.086;2023-05-07T04:11:00;37.75;;;27.55;;
52414;SDS011;38340;52.964;6.086;2023-05-07T04:13:26;35.63;;;28.17;;
52414;SDS011;38340;52.964;6.086;2023-05-07T04:15:52;38.92;;;27.65;;
52414;SDS011;38340;52.964;6.086;2023-05-07T04:18:18;38.65;;;28.77;;
52414;SDS011;38340;52.964;6.086;2023-05-07T04:20:45;38.72;;;27.95;;
52414;SDS011;38340;52.964;6.086;2023-05-07T04:23:10;40.72;;;27.88;;
52414;SDS011;38340;52.964;6.086;2023-05-07T04:25:36;39.97;;;27.52;;
52414;SDS011;38340;52.964;6.086;2023-05-07T04:28:02;36.50;;;27.92;;
52414;SDS011;38340;52.964;6.086;2023-05-07T04:30:27;40.05;;;28.67;;
52414;SDS011;38340;52.964;6.086;2023-05-07T04:32:53;37.03;;;28.42;;
52414;SDS011;38340;52.964;6.086;2023-05-07T04:35:19;39.72;;;29.30;;
52414;SDS011;38340;52.964;6.086;2023-05-07T04:37:44;40.85;;;29.25;;
52414;SDS011;38340;52.964;6.086;2023-05-07T04:40:10;39.85;;;30.10;;
52414;SDS011;38340;52.964;6.086;2023-05-07T04:42:36;40.30;;;30.23;;
52414;SDS011;38340;52.964;6.086;2023-05-07T04:45:02;38.97;;;28.50;;
52414;SDS011;38340;52.964;6.086;2023-05-07T04:47:28;40.10;;;28.88;;
52414;SDS011;38340;52.964;6.086;2023-05-07T04:49:53;40.60;;;30.50;;
52414;SDS011;38340;52.964;6.086;2023-05-07T04:52:19;42.33;;;30.50;;
52414;SDS011;38340;52.964;6.086;2023-05-07T04:54:45;41.35;;;30.52;;
52414;SDS011;38340;52.964;6.086;2023-05-07T04:57:11;39.35;;;30.75;;
52414;SDS011;38340;52.964;6.086;2023-05-07T04:59:36;41.33;;;30.23;;
52414;SDS011;38340;52.964;6.086;2023-05-07T05:02:02;42.53;;;31.52;;
52414;SDS011;38340;52.964;6.086;2023-05-07T05:04:29;44.53;;;32.10;;
52414;SDS011;38340;52.964;6.086;2023-05-07T05:06:55;45.20;;;30.98;;
52414;SDS011;38340;52.964;6.086;2023-05-07T05:09:21;48.20;;;30.25;;
52414;SDS011;38340;52.964;6.086;2023-05-07T05:11:47;41.08;;;30.35;;
52414;SDS011;38340;52.964;6.086;2023-05-07T05:14:12;46.90;;;33.67;;
52414;SDS011;38340;52.964;6.086;2023-05-07T05:16:38;45.03;;;31.20;;
52414;SDS011;38340;52.964;6.086;2023-05-07T05:19:04;47.72;;;31.20;;
52414;SDS011;38340;52.964;6.086;2023-05-07T05:21:30;43.42;;;30.73;;
52414;SDS011;38340;52.964;6.086;2023-05-07T05:23:56;45.20;;;31.02;;
52414;SDS011;38340;52.964;6.086;2023-05-07T05:26:23;48.60;;;33.13;;
52414;SDS011;38340;52.964;6.086;2023-05-07T05:28:48;42.15;;;32.60;;
52414;SDS011;38340;52.964;6.086;2023-05-07T05:31:15;42.17;;;31.75;;
52414;SDS011;38340;52.964;6.086;2023-05-07T05:33:41;42.47;;;31.23;;
52414;SDS011;38340;52.964;6.086;2023-05-07T05:36:08;44.92;;;31.35;;
52414;SDS011;38340;52.964;6.086;2023-05-07T05:38:35;49.63;;;32.25;;
52414;SDS011;38340;52.964;6.086;2023-05-07T05:41:01;41.22;;;30.35;;
52414;SDS011;38340;52.964;6.086;2023-05-07T05:43:26;44.75;;;32.10;;
52414;SDS011;38340;52.964;6.086;2023-05-07T05:45:52;43.92;;;31.55;;
52414;SDS011;38340;52.964;6.086;2023-05-07T05:48:18;46.92;;;32.03;;
52414;SDS011;38340;52.964;6.086;2023-05-07T05:50:43;44.97;;;30.65;;
52414;SDS011;38340;52.964;6.086;2023-05-07T05:53:09;43.53;;;31.27;;
52414;SDS011;38340;52.964;6.086;2023-05-07T05:55:35;45.92;;;31.67;;
52414;SDS011;38340;52.964;6.086;2023-05-07T05:58:00;181.50;;;42.53;;
52414;SDS011;38340;52.964;6.086;2023-05-07T06:00:26;56.13;;;31.75;;
52414;SDS011;38340;52.964;6.086;2023-05-07T06:02:52;51.67;;;32.15;;
52414;SDS011;38340;52.964;6.086;2023-05-07T06:05:18;442.98;;;71.80;;
52414;SDS011;38340;52.964;6.086;2023-05-07T06:07:44;58.63;;;30.92;;
52414;SDS011;38340;52.964;6.086;2023-05-07T06:10:09;45.63;;;32.47;;
52414;SDS011;38340;52.964;6.086;2023-05-07T06:12:35;41.22;;;30.67;;
52414;SDS011;38340;52.964;6.086;2023-05-07T06:15:01;41.90;;;29.77;;
52414;SDS011;38340;52.964;6.086;2023-05-07T06:17:27;39.20;;;28.17;;
52414;SDS011;38340;52.964;6.086;2023-05-07T06:19:52;37.92;;;28.02;;
52414;SDS011;38340;52.964;6.086;2023-05-07T06:22:18;40.65;;;30.13;;
52414;SDS011;38340;52.964;6.086;2023-05-07T06:24:44;38.03;;;28.48;;
52414;SDS011;38340;52.964;6.086;2023-05-07T06:27:10;37.13;;;28.38;;
52414;SDS011;38340;52.964;6.086;2023-05-07T06:29:36;32.28;;;26.35;;
52414;SDS011;38340;52.964;6.086;2023-05-07T06:32:08;38.28;;;28.48;;
52414;SDS011;38340;52.964;6.086;2023-05-07T06:34:38;33.08;;;25.60;;
52414;SDS011;38340;52.964;6.086;2023-05-07T06:37:04;35.58;;;25.98;;
52414;SDS011;38340;52.964;6.086;2023-05-07T06:39:30;36.45;;;26.73;;
52414;SDS011;38340;52.964;6.086;2023-05-07T06:41:56;33.50;;;26.65;;
52414;SDS011;38340;52.964;6.086;2023-05-07T06:44:22;32.28;;;25.65;;
52414;SDS011;38340;52.964;6.086;2023-05-07T06:46:47;29.55;;;24.42;;
52414;SDS011;38340;52.964;6.086;2023-05-07T06:49:13;33.70;;;24.27;;
52414;SDS011;38340;52.964;6.086;2023-05-07T06:51:39;30.30;;;24.70;;
52414;SDS011;38340;52.964;6.086;2023-05-07T06:54:05;33.08;;;23.20;;
52414;SDS011;38340;52.964;6.086;2023-05-07T06:56:31;31.73;;;25.73;;
52414;SDS011;38340;52.964;6.086;2023-05-07T06:58:57;32.58;;;25.67;;
52414;SDS011;38340;52.964;6.086;2023-05-07T07:01:23;29.33;;;23.50;;
52414;SDS011;38340;52.964;6.086;2023-05-07T07:03:48;30.90;;;24.30;;
52414;SDS011;38340;52.964;6.086;2023-05-07T07:06:16;28.77;;;23.67;;
52414;SDS011;38340;52.964;6.086;2023-05-07T07:08:41;28.17;;;23.52;;
52414;SDS011;38340;52.964;6.086;2023-05-07T07:11:07;28.55;;;24.00;;
52414;SDS011;38340;52.964;6.086;2023-05-07T07:13:33;29.13;;;23.85;;
52414;SDS011;38340;52.964;6.086;2023-05-07T07:15:59;26.17;;;22.35;;
52414;SDS011;38340;52.964;6.086;2023-05-07T07:18:25;27.92;;;22.33;;
52414;SDS011;38340;52.964;6.086;2023-05-07T07:20:51;28.35;;;23.33;;
52414;SDS011;38340;52.964;6.086;2023-05-07T07:23:16;27.23;;;23.00;;
52414;SDS011;38340;52.964;6.086;2023-05-07T07:25:42;32.75;;;23.95;;
52414;SDS011;38340;52.964;6.086;2023-05-07T07:28:08;27.85;;;22.38;;
52414;SDS011;38340;52.964;6.086;2023-05-07T07:30:34;28.95;;;23.13;;
52414;SDS011;38340;52.964;6.086;2023-05-07T07:32:59;28.40;;;23.10;;
52414;SDS011;38340;52.964;6.086;2023-05-07T07:35:28;27.25;;;23.02;;
52414;SDS011;38340;52.964;6.086;2023-05-07T07:37:54;30.38;;;23.88;;
52414;SDS011;38340;52.964;6.086;2023-05-07T07:40:20;27.45;;;21.77;;
52414;SDS011;38340;52.964;6.086;2023-05-07T07:42:46;28.55;;;23.83;;
52414;SDS011;38340;52.964;6.086;2023-05-07T07:45:11;27.33;;;23.00;;
52414;SDS011;38340;52.964;6.086;2023-05-07T07:47:38;28.15;;;23.27;;
52414;SDS011;38340;52.964;6.086;2023-05-07T07:50:05;29.33;;;23.38;;
52414;SDS011;38340;52.964;6.086;2023-05-07T07:52:31;28.42;;;23.27;;
52414;SDS011;38340;52.964;6.086;2023-05-07T07:54:57;29.20;;;22.98;;
52414;SDS011;38340;52.964;6.086;2023-05-07T07:57:22;28.42;;;23.27;;
52414;SDS011;38340;52.964;6.086;2023-05-07T07:59:48;27.30;;;23.45;;
52414;SDS011;38340;52.964;6.086;2023-05-07T08:02:15;28.05;;;23.58;;
52414;SDS011;38340;52.964;6.086;2023-05-07T08:04:41;28.60;;;22.52;;
52414;SDS011;38340;52.964;6.086;2023-05-07T08:07:10;28.35;;;22.88;;
52414;SDS011;38340;52.964;6.086;2023-05-07T08:09:37;26.77;;;22.38;;
52414;SDS011;38340;52.964;6.086;2023-05-07T08:12:03;27.33;;;23.20;;
52414;SDS011;38340;52.964;6.086;2023-05-07T08:14:30;26.90;;;22.48;;
52414;SDS011;38340;52.964;6.086;2023-05-07T08:16:56;26.65;;;22.77;;
52414;SDS011;38340;52.964;6.086;2023-05-07T08:19:22;28.55;;;24.02;;
52414;SDS011;38340;52.964;6.086;2023-05-07T08:21:47;27.92;;;23.13;;
52414;SDS011;38340;52.964;6.086;2023-05-07T08:24:14;31.52;;;23.75;;
52414;SDS011;38340;52.964;6.086;2023-05-07T08:26:40;28.13;;;23.08;;
52414;SDS011;38340;52.964;6.086;2023-05-07T08:29:06;28.95;;;23.17;;
52414;SDS011;38340;52.964;6.086;2023-05-07T08:31:32;28.90;;;23.33;;
52414;SDS011;38340;52.964;6.086;2023-05-07T08:33:58;28.75;;;23.17;;
52414;SDS011;38340;52.964;6.086;2023-05-07T08:36:24;26.75;;;23.83;;
52414;SDS011;38340;52.964;6.086;2023-05-07T08:38:53;30.55;;;22.75;;
52414;SDS011;38340;52.964;6.086;2023-05-07T08:41:20;26.58;;;22.48;;
52414;SDS011;38340;52.964;6.086;2023-05-07T08:43:49;27.77;;;23.67;;
52414;SDS011;38340;52.964;6.086;2023-05-07T08:46:22;26.60;;;22.88;;
52414;SDS011;38340;52.964;6.086;2023-05-07T08:48:48;29.40;;;24.33;;
52414;SDS011;38340;52.964;6.086;2023-05-07T08:51:19;26.50;;;23.23;;
52414;SDS011;38340;52.964;6.086;2023-05-07T08:53:46;30.15;;;22.30;;
52414;SDS011;38340;52.964;6.086;2023-05-07T08:56:16;28.70;;;23.85;;
52414;SDS011;38340;52.964;6.086;2023-05-07T08:58:43;30.08;;;24.25;;
52414;SDS011;38340;52.964;6.086;2023-05-07T09:01:10;29.23;;;24.33;;
52414;SDS011;38340;52.964;6.086;2023-05-07T09:03:39;26.27;;;22.35;;
52414;SDS011;38340;52.964;6.086;2023-05-07T09:06:06;28.45;;;22.73;;
52414;SDS011;38340;52.964;6.086;2023-05-07T09:08:32;27.48;;;23.30;;
52414;SDS011;38340;52.964;6.086;2023-05-07T09:10:59;31.35;;;24.88;;
52414;SDS011;38340;52.964;6.086;2023-05-07T09:13:25;26.65;;;23.75;;
52414;SDS011;38340;52.964;6.086;2023-05-07T09:15:52;28.90;;;24.23;;
52414;SDS011;38340;52.964;6.086;2023-05-07T09:18:18;28.90;;;23.58;;
52414;SDS011;38340;52.964;6.086;2023-05-07T09:20:43;29.45;;;24.02;;
52414;SDS011;38340;52.964;6.086;2023-05-07T09:23:09;29.77;;;23.08;;
52414;SDS011;38340;52.964;6.086;2023-05-07T09:25:35;28.42;;;24.52;;
52414;SDS011;38340;52.964;6.086;2023-05-07T09:28:02;29.08;;;23.85;;
52414;SDS011;38340;52.964;6.086;2023-05-07T09:30:29;26.80;;;23.55;;
52414;SDS011;38340;52.964;6.086;2023-05-07T09:32:57;28.60;;;23.95;;
52414;SDS011;38340;52.964;6.086;2023-05-07T09:35:23;31.70;;;24.73;;
52414;SDS011;38340;52.964;6.086;2023-05-07T09:37:55;26.95;;;23.63;;
52414;SDS011;38340;52.964;6.086;2023-05-07T09:40:27;28.52;;;24.65;;
52414;SDS011;38340;52.964;6.086;2023-05-07T09:42:54;28.80;;;24.50;;
52414;SDS011;38340;52.964;6.086;2023-05-07T09:45:29;26.77;;;23.83;;
52414;SDS011;38340;52.964;6.086;2023-05-07T09:47:57;29.13;;;23.98;;
52414;SDS011;38340;52.964;6.086;2023-05-07T09:50:27;31.45;;;25.45;;
52414;SDS011;38340;52.964;6.086;2023-05-07T09:52:55;29.42;;;24.60;;
52414;SDS011;38340;52.964;6.086;2023-05-07T09:55:22;27.02;;;23.90;;
52414;SDS011;38340;52.964;6.086;2023-05-07T09:57:51;27.88;;;23.63;;
52414;SDS011;38340;52.964;6.086;2023-05-07T10:00:21;28.77;;;24.52;;
52414;SDS011;38340;52.964;6.086;2023-05-07T10:02:48;28.25;;;24.23;;
52414;SDS011;38340;52.964;6.086;2023-05-07T10:05:17;28.50;;;24.42;;
52414;SDS011;38340;52.964;6.086;2023-05-07T10:07:43;29.67;;;24.40;;
52414;SDS011;38340;52.964;6.086;2023-05-07T10:10:10;27.65;;;24.67;;
52414;SDS011;38340;52.964;6.086;2023-05-07T10:12:36;27.70;;;23.58;;
52414;SDS011;38340;52.964;6.086;2023-05-07T10:15:09;28.90;;;23.63;;
52414;SDS011;38340;52.964;6.086;2023-05-07T10:17:36;27.58;;;24.55;;
52414;SDS011;38340;52.964;6.086;2023-05-07T10:20:04;29.25;;;24.10;;
52414;SDS011;38340;52.964;6.086;2023-05-07T10:22:32;29.92;;;23.65;;
52414;SDS011;38340;52.964;6.086;2023-05-07T10:25:04;28.77;;;23.55;;
52414;SDS011;38340;52.964;6.086;2023-05-07T10:27:36;29.73;;;24.15;;
52414;SDS011;38340;52.964;6.086;2023-05-07T10:30:12;28.35;;;23.08;;
52414;SDS011;38340;52.964;6.086;2023-05-07T10:33:10;27.77;;;23.77;;
52414;SDS011;38340;52.964;6.086;2023-05-07T10:35:39;27.17;;;23.85;;
52414;SDS011;38340;52.964;6.086;2023-05-07T10:38:07;26.98;;;24.05;;
52414;SDS011;38340;52.964;6.086;2023-05-07T10:40:33;28.55;;;24.63;;
52414;SDS011;38340;52.964;6.086;2023-05-07T10:43:04;27.75;;;24.70;;
52414;SDS011;38340;52.964;6.086;2023-05-07T10:45:31;25.98;;;22.52;;
52414;SDS011;38340;52.964;6.086;2023-05-07T10:48:07;27.83;;;24.50;;
52414;SDS011;38340;52.964;6.086;2023-05-07T10:50:37;27.00;;;23.70;;
52414;SDS011;38340;52.964;6.086;2023-05-07T10:55:42;27.13;;;23.42;;
52414;SDS011;38340;52.964;6.086;2023-05-07T11:00:46;30.45;;;23.73;;
52414;SDS011;38340;52.964;6.086;2023-05-07T11:03:13;28.80;;;25.52;;
52414;SDS011;38340;52.964;6.086;2023-05-07T11:05:40;28.42;;;24.67;;
52414;SDS011;38340;52.964;6.086;2023-05-07T11:08:07;26.73;;;23.50;;
52414;SDS011;38340;52.964;6.086;2023-05-07T11:10:49;29.77;;;24.20;;
52414;SDS011;38340;52.964;6.086;2023-05-07T11:18:50;26.30;;;23.13;;
52414;SDS011;38340;52.964;6.086;2023-05-07T11:24:02;25.73;;;22.75;;
52414;SDS011;38340;52.964;6.086;2023-05-07T11:26:30;24.88;;;21.48;;
52414;SDS011;38340;52.964;6.086;2023-05-07T11:29:10;28.02;;;24.58;;
52414;SDS011;38340;52.964;6.086;2023-05-07T11:31:36;26.98;;;22.90;;
52414;SDS011;38340;52.964;6.086;2023-05-07T11:34:03;27.17;;;23.60;;
52414;SDS011;38340;52.964;6.086;2023-05-07T11:36:30;29.75;;;22.15;;
52414;SDS011;38340;52.964;6.086;2023-05-07T11:38:57;24.77;;;22.05;;
52414;SDS011;38340;52.964;6.086;2023-05-07T11:41:32;26.00;;;22.98;;
52414;SDS011;38340;52.964;6.086;2023-05-07T11:44:00;24.85;;;22.27;;
52414;SDS011;38340;52.964;6.086;2023-05-07T11:46:26;26.98;;;23.40;;
52414;SDS011;38340;52.964;6.086;2023-05-07T11:48:52;23.65;;;21.15;;
52414;SDS011;38340;52.964;6.086;2023-05-07T11:51:19;25.55;;;22.85;;
52414;SDS011;38340;52.964;6.086;2023-05-07T11:53:48;23.75;;;21.35;;
52414;SDS011;38340;52.964;6.086;2023-05-07T11:56:16;23.05;;;20.55;;
52414;SDS011;38340;52.964;6.086;2023-05-07T11:58:43;22.73;;;20.42;;
52414;SDS011;38340;52.964;6.086;2023-05-07T12:01:10;24.25;;;21.38;;
52414;SDS011;38340;52.964;6.086;2023-05-07T12:03:37;22.60;;;20.20;;
52414;SDS011;38340;52.964;6.086;2023-05-07T12:06:07;23.45;;;20.30;;
52414;SDS011;38340;52.964;6.086;2023-05-07T12:08:36;23.00;;;20.13;;
52414;SDS011;38340;52.964;6.086;2023-05-07T12:11:03;23.50;;;21.05;;
52414;SDS011;38340;52.964;6.086;2023-05-07T12:13:31;24.15;;;21.55;;
52414;SDS011;38340;52.964;6.086;2023-05-07T12:15:57;22.25;;;20.08;;
52414;SDS011;38340;52.964;6.086;2023-05-07T12:18:23;22.13;;;19.75;;
52414;SDS011;38340;52.964;6.086;2023-05-07T12:20:50;24.45;;;19.45;;
52414;SDS011;38340;52.964;6.086;2023-05-07T12:23:16;22.20;;;19.55;;
52414;SDS011;38340;52.964;6.086;2023-05-07T12:25:42;21.83;;;19.63;;
52414;SDS011;38340;52.964;6.086;2023-05-07T12:28:18;20.23;;;18.13;;
52414;SDS011;38340;52.964;6.086;2023-05-07T12:30:47;19.92;;;17.85;;
52414;SDS011;38340;52.964;6.086;2023-05-07T12:33:18;22.13;;;18.88;;
52414;SDS011;38340;52.964;6.086;2023-05-07T12:35:49;19.73;;;17.63;;
52414;SDS011;38340;52.964;6.086;2023-05-07T12:38:16;19.38;;;17.38;;
52414;SDS011;38340;52.964;6.086;2023-05-07T12:40:43;21.20;;;19.10;;
52414;SDS011;38340;52.964;6.086;2023-05-07T12:45:42;22.00;;;18.92;;
52414;SDS011;38340;52.964;6.086;2023-05-07T12:48:09;20.30;;;18.20;;
52414;SDS011;38340;52.964;6.086;2023-05-07T12:50:35;21.10;;;18.95;;
52414;SDS011;38340;52.964;6.086;2023-05-07T12:53:05;20.08;;;18.08;;
52414;SDS011;38340;52.964;6.086;2023-05-07T12:55:34;20.08;;;17.98;;
52414;SDS011;38340;52.964;6.086;2023-05-07T12:58:14;18.90;;;17.00;;
52414;SDS011;38340;52.964;6.086;2023-05-07T13:00:44;18.42;;;16.35;;
52414;SDS011;38340;52.964;6.086;2023-05-07T13:03:16;20.20;;;18.17;;
52414;SDS011;38340;52.964;6.086;2023-05-07T13:05:54;18.27;;;16.42;;
52414;SDS011;38340;52.964;6.086;2023-05-07T13:08:34;19.80;;;17.80;;
52414;SDS011;38340;52.964;6.086;2023-05-07T13:11:10;18.90;;;16.95;;
52414;SDS011;38340;52.964;6.086;2023-05-07T13:13:38;18.63;;;16.15;;
52414;SDS011;38340;52.964;6.086;2023-05-07T13:16:06;19.35;;;17.45;;
52414;SDS011;38340;52.964;6.086;2023-05-07T13:18:33;20.35;;;16.95;;
52414;SDS011;38340;52.964;6.086;2023-05-07T13:20:59;19.30;;;17.15;;
52414;SDS011;38340;52.964;6.086;2023-05-07T13:23:26;18.65;;;16.85;;
52414;SDS011;38340;52.964;6.086;2023-05-07T13:25:52;20.95;;;18.73;;
52414;SDS011;38340;52.964;6.086;2023-05-07T13:28:19;23.83;;;17.80;;
52414;SDS011;38340;52.964;6.086;2023-05-07T13:30:45;21.13;;;19.02;;
52414;SDS011;38340;52.964;6.086;2023-05-07T13:33:11;21.90;;;19.67;;
52414;SDS011;38340;52.964;6.086;2023-05-07T13:35:37;21.45;;;19.23;;
52414;SDS011;38340;52.964;6.086;2023-05-07T13:38:03;20.70;;;18.63;;
52414;SDS011;38340;52.964;6.086;2023-05-07T13:40:30;19.73;;;17.83;;
52414;SDS011;38340;52.964;6.086;2023-05-07T13:42:56;20.35;;;18.08;;
52414;SDS011;38340;52.964;6.086;2023-05-07T13:45:23;21.52;;;19.33;;
52414;SDS011;38340;52.964;6.086;2023-05-07T13:47:50;21.73;;;19.38;;
52414;SDS011;38340;52.964;6.086;2023-05-07T13:50:16;22.02;;;19.52;;
52414;SDS011;38340;52.964;6.086;2023-05-07T13:52:43;20.42;;;18.23;;
52414;SDS011;38340;52.964;6.086;2023-05-07T13:55:18;21.13;;;18.65;;
52414;SDS011;38340;52.964;6.086;2023-05-07T13:57:45;20.45;;;18.38;;
52414;SDS011;38340;52.964;6.086;2023-05-07T14:00:12;19.85;;;17.88;;
52414;SDS011;38340;52.964;6.086;2023-05-07T14:02:38;19.35;;;17.25;;
52414;SDS011;38340;52.964;6.086;2023-05-07T14:05:04;19.23;;;17.27;;
52414;SDS011;38340;52.964;6.086;2023-05-07T14:07:30;18.33;;;16.63;;
52414;SDS011;38340;52.964;6.086;2023-05-07T14:09:56;19.17;;;17.27;;
52414;SDS011;38340;52.964;6.086;2023-05-07T14:12:22;20.02;;;18.02;;
52414;SDS011;38340;52.964;6.086;2023-05-07T14:14:48;18.35;;;16.65;;
52414;SDS011;38340;52.964;6.086;2023-05-07T14:17:15;17.92;;;16.05;;
52414;SDS011;38340;52.964;6.086;2023-05-07T14:19:43;16.58;;;14.98;;
52414;SDS011;38340;52.964;6.086;2023-05-07T14:22:09;16.92;;;15.25;;
52414;SDS011;38340;52.964;6.086;2023-05-07T14:24:35;18.48;;;16.65;;
52414;SDS011;38340;52.964;6.086;2023-05-07T14:27:01;17.90;;;16.00;;
52414;SDS011;38340;52.964;6.086;2023-05-07T14:29:27;18.33;;;16.38;;
52414;SDS011;38340;52.964;6.086;2023-05-07T14:31:53;16.45;;;14.88;;
52414;SDS011;38340;52.964;6.086;2023-05-07T14:34:18;17.15;;;15.45;;
52414;SDS011;38340;52.964;6.086;2023-05-07T14:36:45;17.52;;;15.82;;